sensor_id;sensor_type;location;lat;lon;timestamp;temperature;humidity
16980;DHT22;42288;52.182;21.156;2023-07-31T00:00:24;19.30;99.90
16980;DHT22;42288;52.182;21.156;2023-07-31T00:02:51;19.30;99.90
16980;DHT22;42288;52.182;21.156;2023-07-31T00:05:17;19.30;99.90
16980;DHT22;42288;52.182;21.156;2023-07-31T00:07:43;19.30;99.90
16980;DHT22;42288;52.182;21.156;2023-07-31T00:10:09;19.20;99.90
16980;DHT22;42288;52.182;21.156;2023-07-31T00:12:34;19.20;99.90
16980;DHT22;42288;52.182;21.156;2023-07-31T00:15:00;19.20;99.90
16980;DHT22;42288;52.182;21.156;2023-07-31T00:17:25;19.10;99.90
16980;DHT22;42288;52.182;21.156;2023-07-31T00:19:51;19.10;99.90
16980;DHT22;42288;52.182;21.156;2023-07-31T00:22:17;19.10;99.90
16980;DHT22;42288;52.182;21.156;2023-07-31T00:24:42;19.00;99.90
16980;DHT22;42288;52.182;21.156;2023-07-31T00:27:08;19.00;99.90
16980;DHT22;42288;52.182;21.156;2023-07-31T00:29:34;19.00;99.90
16980;DHT22;42288;52.182;21.156;2023-07-31T00:31:59;19.00;99.90
16980;DHT22;42288;52.182;21.156;2023-07-31T00:34:25;19.00;99.90
16980;DHT22;42288;52.182;21.156;2023-07-31T00:36:50;19.00;99.90
16980;DHT22;42288;52.182;21.156;2023-07-31T00:39:16;19.00;99.90
16980;DHT22;42288;52.182;21.156;2023-07-31T00:41:42;18.90;99.90
16980;DHT22;42288;52.182;21.156;2023-07-31T00:44:07;18.90;99.90
16980;DHT22;42288;52.182;21.156;2023-07-31T00:46:33;18.90;99.90
16980;DHT22;42288;52.182;21.156;2023-07-31T00:48:59;18.90;99.90
16980;DHT22;42288;52.182;21.156;2023-07-31T00:51:25;18.80;99.90
16980;DHT22;42288;52.182;21.156;2023-07-31T00:53:51;18.90;99.90
16980;DHT22;42288;52.182;21.156;2023-07-31T00:56:19;18.90;99.90
16980;DHT22;42288;52.182;21.156;2023-07-31T00:58:45;18.80;99.90
16980;DHT22;42288;52.182;21.156;2023-07-31T01:01:10;18.70;99.90
16980;DHT22;42288;52.182;21.156;2023-07-31T01:03:36;18.70;99.90
16980;DHT22;42288;52.182;21.156;2023-07-31T01:08:51;18.70;99.90
16980;DHT22;42288;52.182;21.156;2023-07-31T01:11:25;18.70;99.90
16980;DHT22;42288;52.182;21.156;2023-07-31T01:13:51;18.60;99.90
16980;DHT22;42288;52.182;21.156;2023-07-31T01:16:18;18.70;99.90
16980;DHT22;42288;52.182;21.156;2023-07-31T01:18:43;18.70;99.90
16980;DHT22;42288;52.182;21.156;2023-07-31T01:29:38;18.60;99.90
16980;DHT22;42288;52.182;21.156;2023-07-31T01:32:09;18.50;99.90
16980;DHT22;42288;52.182;21.156;2023-07-31T01:34:36;18.40;99.90
16980;DHT22;42288;52.182;21.156;2023-07-31T01:37:03;18.50;99.90
16980;DHT22;42288;52.182;21.156;2023-07-31T01:39:28;18.40;99.90
16980;DHT22;42288;52.182;21.156;2023-07-31T01:41:54;18.30;99.90
16980;DHT22;42288;52.182;21.156;2023-07-31T01:44:20;18.30;99.90
16980;DHT22;42288;52.182;21.156;2023-07-31T01:46:45;18.20;99.90
16980;DHT22;42288;52.182;21.156;2023-07-31T01:49:11;18.20;99.90
16980;DHT22;42288;52.182;21.156;2023-07-31T01:51:36;18.20;99.90
16980;DHT22;42288;52.182;21.156;2023-07-31T01:54:02;18.20;99.90
16980;DHT22;42288;52.182;21.156;2023-07-31T01:56:28;18.20;99.90
16980;DHT22;42288;52.182;21.156;2023-07-31T01:58:54;18.30;99.90
16980;DHT22;42288;52.182;21.156;2023-07-31T02:01:19;18.30;99.90
16980;DHT22;42288;52.182;21.156;2023-07-31T02:03:45;18.20;99.90
16980;DHT22;42288;52.182;21.156;2023-07-31T02:06:10;18.10;99.90
16980;DHT22;42288;52.182;21.156;2023-07-31T02:08:36;18.10;99.90
16980;DHT22;42288;52.182;21.156;2023-07-31T02:11:02;18.00;99.90
16980;DHT22;42288;52.182;21.156;2023-07-31T02:13:27;18.00;99.90
16980;DHT22;42288;52.182;21.156;2023-07-31T02:15:53;17.90;99.90
16980;DHT22;42288;52.182;21.156;2023-07-31T02:18:19;17.90;99.90
16980;DHT22;42288;52.182;21.156;2023-07-31T02:20:52;17.90;99.90
16980;DHT22;42288;52.182;21.156;2023-07-31T02:23:20;17.90;99.90
16980;DHT22;42288;52.182;21.156;2023-07-31T02:25:46;17.80;99.90
16980;DHT22;42288;52.182;21.156;2023-07-31T02:28:12;17.80;99.90
16980;DHT22;42288;52.182;21.156;2023-07-31T02:30:38;17.90;99.90
16980;DHT22;42288;52.182;21.156;2023-07-31T02:33:04;17.80;99.90
16980;DHT22;42288;52.182;21.156;2023-07-31T02:35:30;17.70;99.90
16980;DHT22;42288;52.182;21.156;2023-07-31T02:37:55;17.60;99.90
16980;DHT22;42288;52.182;21.156;2023-07-31T02:40:21;17.60;99.90
16980;DHT22;42288;52.182;21.156;2023-07-31T02:42:46;17.60;99.90
16980;DHT22;42288;52.182;21.156;2023-07-31T02:45:12;17.60;99.90
16980;DHT22;42288;52.182;21.156;2023-07-31T02:47:38;17.50;99.90
16980;DHT22;42288;52.182;21.156;2023-07-31T02:50:04;17.50;99.90
16980;DHT22;42288;52.182;21.156;2023-07-31T02:52:30;17.50;99.90
16980;DHT22;42288;52.182;21.156;2023-07-31T02:54:55;17.60;99.90
16980;DHT22;42288;52.182;21.156;2023-07-31T02:57:21;17.60;99.90
16980;DHT22;42288;52.182;21.156;2023-07-31T02:59:46;17.70;99.90
16980;DHT22;42288;52.182;21.156;2023-07-31T03:02:12;17.80;99.90
16980;DHT22;42288;52.182;21.156;2023-07-31T03:04:38;17.90;99.90
16980;DHT22;42288;52.182;21.156;2023-07-31T03:07:04;17.80;99.90
16980;DHT22;42288;52.182;21.156;2023-07-31T03:09:30;17.90;99.90
16980;DHT22;42288;52.182;21.156;2023-07-31T03:11:55;17.90;99.90
16980;DHT22;42288;52.182;21.156;2023-07-31T03:14:21;17.90;99.90
16980;DHT22;42288;52.182;21.156;2023-07-31T03:16:47;18.00;99.90
16980;DHT22;42288;52.182;21.156;2023-07-31T03:19:12;18.00;99.90
16980;DHT22;42288;52.182;21.156;2023-07-31T03:21:38;18.00;99.90
16980;DHT22;42288;52.182;21.156;2023-07-31T03:35:15;18.10;99.90
16980;DHT22;42288;52.182;21.156;2023-07-31T03:37:40;18.60;99.90
16980;DHT22;42288;52.182;21.156;2023-07-31T03:40:06;18.60;99.90
16980;DHT22;42288;52.182;21.156;2023-07-31T03:42:32;18.70;99.90
16980;DHT22;42288;52.182;21.156;2023-07-31T03:44:58;18.70;99.90
16980;DHT22;42288;52.182;21.156;2023-07-31T03:47:23;18.70;99.90
16980;DHT22;42288;52.182;21.156;2023-07-31T03:49:49;18.70;99.90
16980;DHT22;42288;52.182;21.156;2023-07-31T03:52:14;18.70;99.90
16980;DHT22;42288;52.182;21.156;2023-07-31T03:54:40;18.80;99.90
16980;DHT22;42288;52.182;21.156;2023-07-31T03:57:05;18.90;99.90
16980;DHT22;42288;52.182;21.156;2023-07-31T03:59:31;18.80;99.90
16980;DHT22;42288;52.182;21.156;2023-07-31T04:01:57;18.80;99.90
16980;DHT22;42288;52.182;21.156;2023-07-31T04:04:22;18.80;99.90
16980;DHT22;42288;52.182;21.156;2023-07-31T04:06:48;18.80;99.90
16980;DHT22;42288;52.182;21.156;2023-07-31T04:09:13;18.80;99.90
16980;DHT22;42288;52.182;21.156;2023-07-31T04:11:39;18.80;99.90
16980;DHT22;42288;52.182;21.156;2023-07-31T04:14:04;18.70;99.90
16980;DHT22;42288;52.182;21.156;2023-07-31T04:16:30;18.80;99.90
16980;DHT22;42288;52.182;21.156;2023-07-31T04:18:55;18.80;99.90
16980;DHT22;42288;52.182;21.156;2023-07-31T04:21:21;18.80;99.90
16980;DHT22;42288;52.182;21.156;2023-07-31T04:23:47;18.80;99.90
16980;DHT22;42288;52.182;21.156;2023-07-31T04:26:12;18.80;99.90
16980;DHT22;42288;52.182;21.156;2023-07-31T04:28:38;18.80;99.90
16980;DHT22;42288;52.182;21.156;2023-07-31T04:31:03;18.80;99.90
16980;DHT22;42288;52.182;21.156;2023-07-31T04:33:29;18.80;99.90
16980;DHT22;42288;52.182;21.156;2023-07-31T04:35:55;18.80;99.90
16980;DHT22;42288;52.182;21.156;2023-07-31T04:38:21;18.80;99.90
16980;DHT22;42288;52.182;21.156;2023-07-31T04:40:47;18.80;99.90
16980;DHT22;42288;52.182;21.156;2023-07-31T04:43:12;18.80;99.90
16980;DHT22;42288;52.182;21.156;2023-07-31T04:45:38;18.80;99.90
16980;DHT22;42288;52.182;21.156;2023-07-31T04:48:04;18.90;99.90
16980;DHT22;42288;52.182;21.156;2023-07-31T04:50:30;18.80;99.90
16980;DHT22;42288;52.182;21.156;2023-07-31T04:52:56;18.90;99.90
16980;DHT22;42288;52.182;21.156;2023-07-31T04:55:21;18.80;99.90
16980;DHT22;42288;52.182;21.156;2023-07-31T04:57:47;18.90;99.90
16980;DHT22;42288;52.182;21.156;2023-07-31T05:00:13;18.90;99.90
16980;DHT22;42288;52.182;21.156;2023-07-31T05:02:38;18.90;99.90
16980;DHT22;42288;52.182;21.156;2023-07-31T05:05:04;18.90;99.90
16980;DHT22;42288;52.182;21.156;2023-07-31T05:07:30;19.00;99.90
16980;DHT22;42288;52.182;21.156;2023-07-31T05:09:55;19.00;99.90
16980;DHT22;42288;52.182;21.156;2023-07-31T05:12:21;19.00;99.90
16980;DHT22;42288;52.182;21.156;2023-07-31T05:14:47;18.90;99.90
16980;DHT22;42288;52.182;21.156;2023-07-31T05:17:12;19.00;99.90
16980;DHT22;42288;52.182;21.156;2023-07-31T05:19:38;19.10;99.90
16980;DHT22;42288;52.182;21.156;2023-07-31T05:22:03;19.10;99.90
16980;DHT22;42288;52.182;21.156;2023-07-31T05:24:29;19.10;99.90
16980;DHT22;42288;52.182;21.156;2023-07-31T05:26:55;19.20;99.90
16980;DHT22;42288;52.182;21.156;2023-07-31T05:29:20;19.10;99.90
16980;DHT22;42288;52.182;21.156;2023-07-31T05:31:46;19.20;99.90
16980;DHT22;42288;52.182;21.156;2023-07-31T05:34:12;19.20;99.90
16980;DHT22;42288;52.182;21.156;2023-07-31T05:36:37;19.30;99.90
16980;DHT22;42288;52.182;21.156;2023-07-31T05:39:03;19.40;99.90
16980;DHT22;42288;52.182;21.156;2023-07-31T05:41:32;19.50;99.90
16980;DHT22;42288;52.182;21.156;2023-07-31T05:43:58;19.50;99.90
16980;DHT22;42288;52.182;21.156;2023-07-31T05:46:23;19.50;99.90
16980;DHT22;42288;52.182;21.156;2023-07-31T05:48:49;19.50;99.90
16980;DHT22;42288;52.182;21.156;2023-07-31T05:51:14;19.50;99.90
16980;DHT22;42288;52.182;21.156;2023-07-31T05:53:40;19.50;99.90
16980;DHT22;42288;52.182;21.156;2023-07-31T05:56:06;19.50;99.90
16980;DHT22;42288;52.182;21.156;2023-07-31T05:58:32;19.50;99.90
16980;DHT22;42288;52.182;21.156;2023-07-31T06:00:57;19.60;99.90
16980;DHT22;42288;52.182;21.156;2023-07-31T06:03:23;19.60;99.90
16980;DHT22;42288;52.182;21.156;2023-07-31T06:05:48;19.70;99.90
16980;DHT22;42288;52.182;21.156;2023-07-31T06:08:14;19.70;99.90
16980;DHT22;42288;52.182;21.156;2023-07-31T06:10:39;19.80;99.90
16980;DHT22;42288;52.182;21.156;2023-07-31T06:13:05;19.80;99.90
16980;DHT22;42288;52.182;21.156;2023-07-31T06:15:31;19.80;99.90
16980;DHT22;42288;52.182;21.156;2023-07-31T06:17:56;19.90;99.90
16980;DHT22;42288;52.182;21.156;2023-07-31T06:20:23;19.90;99.90
16980;DHT22;42288;52.182;21.156;2023-07-31T06:22:48;20.00;99.90
16980;DHT22;42288;52.182;21.156;2023-07-31T06:25:14;20.10;99.90
16980;DHT22;42288;52.182;21.156;2023-07-31T06:27:39;20.00;99.90
16980;DHT22;42288;52.182;21.156;2023-07-31T06:30:05;20.10;99.90
16980;DHT22;42288;52.182;21.156;2023-07-31T06:32:32;19.90;99.90
16980;DHT22;42288;52.182;21.156;2023-07-31T06:34:57;19.90;99.90
16980;DHT22;42288;52.182;21.156;2023-07-31T06:37:23;19.80;99.90
16980;DHT22;42288;52.182;21.156;2023-07-31T06:39:48;19.90;99.90
16980;DHT22;42288;52.182;21.156;2023-07-31T06:42:14;19.90;99.90
16980;DHT22;42288;52.182;21.156;2023-07-31T06:44:39;19.90;99.90
16980;DHT22;42288;52.182;21.156;2023-07-31T06:47:05;19.80;99.90
16980;DHT22;42288;52.182;21.156;2023-07-31T06:49:31;19.80;99.90
16980;DHT22;42288;52.182;21.156;2023-07-31T06:51:56;19.80;99.90
16980;DHT22;42288;52.182;21.156;2023-07-31T06:54:22;19.80;99.90
16980;DHT22;42288;52.182;21.156;2023-07-31T06:56:47;19.80;99.90
16980;DHT22;42288;52.182;21.156;2023-07-31T06:59:13;19.90;99.90
16980;DHT22;42288;52.182;21.156;2023-07-31T07:01:39;19.90;99.90
16980;DHT22;42288;52.182;21.156;2023-07-31T07:04:04;19.90;99.90
16980;DHT22;42288;52.182;21.156;2023-07-31T07:06:30;20.00;99.90
16980;DHT22;42288;52.182;21.156;2023-07-31T07:08:55;19.90;99.90
16980;DHT22;42288;52.182;21.156;2023-07-31T07:11:21;19.90;99.90
16980;DHT22;42288;52.182;21.156;2023-07-31T07:13:46;19.90;99.90
16980;DHT22;42288;52.182;21.156;2023-07-31T07:16:12;19.90;99.90
16980;DHT22;42288;52.182;21.156;2023-07-31T07:18:38;19.90;99.90
16980;DHT22;42288;52.182;21.156;2023-07-31T07:21:03;20.00;99.90
16980;DHT22;42288;52.182;21.156;2023-07-31T07:23:29;20.00;99.90
16980;DHT22;42288;52.182;21.156;2023-07-31T07:25:54;20.00;99.90
16980;DHT22;42288;52.182;21.156;2023-07-31T07:28:20;20.00;99.90
16980;DHT22;42288;52.182;21.156;2023-07-31T07:30:51;20.10;99.90
16980;DHT22;42288;52.182;21.156;2023-07-31T07:33:17;20.10;99.90
16980;DHT22;42288;52.182;21.156;2023-07-31T07:35:43;20.20;99.90
16980;DHT22;42288;52.182;21.156;2023-07-31T07:38:09;20.30;99.90
16980;DHT22;42288;52.182;21.156;2023-07-31T07:40:39;20.40;99.90
16980;DHT22;42288;52.182;21.156;2023-07-31T07:43:04;20.40;99.90
16980;DHT22;42288;52.182;21.156;2023-07-31T07:45:30;20.60;99.90
16980;DHT22;42288;52.182;21.156;2023-07-31T07:47:55;20.90;99.90
16980;DHT22;42288;52.182;21.156;2023-07-31T07:50:21;21.20;99.90
16980;DHT22;42288;52.182;21.156;2023-07-31T07:52:47;21.20;99.90
16980;DHT22;42288;52.182;21.156;2023-07-31T07:55:12;21.30;99.90
16980;DHT22;42288;52.182;21.156;2023-07-31T07:57:38;21.30;99.90
16980;DHT22;42288;52.182;21.156;2023-07-31T08:00:04;21.50;99.90
16980;DHT22;42288;52.182;21.156;2023-07-31T08:02:31;21.40;99.90
16980;DHT22;42288;52.182;21.156;2023-07-31T08:04:56;21.50;99.90
16980;DHT22;42288;52.182;21.156;2023-07-31T08:07:22;21.50;99.90
16980;DHT22;42288;52.182;21.156;2023-07-31T08:09:47;21.70;99.90
16980;DHT22;42288;52.182;21.156;2023-07-31T08:12:13;21.70;99.90
16980;DHT22;42288;52.182;21.156;2023-07-31T08:14:39;21.70;99.90
16980;DHT22;42288;52.182;21.156;2023-07-31T08:17:04;22.00;99.90
16980;DHT22;42288;52.182;21.156;2023-07-31T08:19:30;21.90;99.90
16980;DHT22;42288;52.182;21.156;2023-07-31T08:21:56;22.00;99.90
16980;DHT22;42288;52.182;21.156;2023-07-31T08:24:21;22.20;99.90
16980;DHT22;42288;52.182;21.156;2023-07-31T08:26:47;22.30;99.90
16980;DHT22;42288;52.182;21.156;2023-07-31T08:29:13;22.40;99.90
16980;DHT22;42288;52.182;21.156;2023-07-31T08:31:39;22.40;99.90
16980;DHT22;42288;52.182;21.156;2023-07-31T08:34:04;22.60;99.90
16980;DHT22;42288;52.182;21.156;2023-07-31T08:36:30;22.60;99.90
16980;DHT22;42288;52.182;21.156;2023-07-31T08:38:55;22.50;99.90
16980;DHT22;42288;52.182;21.156;2023-07-31T08:41:21;22.60;99.90
16980;DHT22;42288;52.182;21.156;2023-07-31T08:43:47;22.60;99.90
16980;DHT22;42288;52.182;21.156;2023-07-31T08:46:13;22.80;99.90
16980;DHT22;42288;52.182;21.156;2023-07-31T08:48:41;23.10;99.90
16980;DHT22;42288;52.182;21.156;2023-07-31T08:51:07;23.20;99.90
16980;DHT22;42288;52.182;21.156;2023-07-31T08:53:33;23.40;99.90
16980;DHT22;42288;52.182;21.156;2023-07-31T08:55:59;23.40;99.90
16980;DHT22;42288;52.182;21.156;2023-07-31T08:58:25;23.50;99.90
16980;DHT22;42288;52.182;21.156;2023-07-31T09:00:54;23.30;99.90
16980;DHT22;42288;52.182;21.156;2023-07-31T09:03:23;23.40;99.90
16980;DHT22;42288;52.182;21.156;2023-07-31T09:05:50;23.50;99.90
16980;DHT22;42288;52.182;21.156;2023-07-31T09:08:19;23.60;99.90
16980;DHT22;42288;52.182;21.156;2023-07-31T09:10:46;23.70;99.90
16980;DHT22;42288;52.182;21.156;2023-07-31T09:13:13;23.60;99.20
16980;DHT22;42288;52.182;21.156;2023-07-31T09:15:39;23.60;99.00
16980;DHT22;42288;52.182;21.156;2023-07-31T09:18:07;23.70;97.90
16980;DHT22;42288;52.182;21.156;2023-07-31T09:20:32;23.90;98.70
16980;DHT22;42288;52.182;21.156;2023-07-31T09:23:13;24.00;98.40
16980;DHT22;42288;52.182;21.156;2023-07-31T09:25:39;24.00;98.10
16980;DHT22;42288;52.182;21.156;2023-07-31T09:28:11;24.00;97.80
16980;DHT22;42288;52.182;21.156;2023-07-31T09:30:51;24.00;97.10
16980;DHT22;42288;52.182;21.156;2023-07-31T09:33:18;23.90;97.80
16980;DHT22;42288;52.182;21.156;2023-07-31T09:35:44;23.90;98.10
16980;DHT22;42288;52.182;21.156;2023-07-31T09:38:14;24.10;97.90
16980;DHT22;42288;52.182;21.156;2023-07-31T09:40:45;24.40;98.50
16980;DHT22;42288;52.182;21.156;2023-07-31T09:43:19;24.50;97.70
16980;DHT22;42288;52.182;21.156;2023-07-31T09:45:45;24.60;98.30
16980;DHT22;42288;52.182;21.156;2023-07-31T09:48:14;24.50;96.40
16980;DHT22;42288;52.182;21.156;2023-07-31T09:50:44;24.40;95.10
16980;DHT22;42288;52.182;21.156;2023-07-31T09:53:10;24.20;95.00
16980;DHT22;42288;52.182;21.156;2023-07-31T09:55:37;24.40;95.90
16980;DHT22;42288;52.182;21.156;2023-07-31T09:58:08;24.60;95.00
16980;DHT22;42288;52.182;21.156;2023-07-31T10:00:34;24.90;96.40
16980;DHT22;42288;52.182;21.156;2023-07-31T10:03:02;25.00;94.30
16980;DHT22;42288;52.182;21.156;2023-07-31T10:05:38;25.00;94.40
16980;DHT22;42288;52.182;21.156;2023-07-31T10:08:06;25.30;94.20
16980;DHT22;42288;52.182;21.156;2023-07-31T10:10:33;25.40;94.60
16980;DHT22;42288;52.182;21.156;2023-07-31T10:13:00;25.50;93.70
16980;DHT22;42288;52.182;21.156;2023-07-31T10:15:26;25.70;93.60
16980;DHT22;42288;52.182;21.156;2023-07-31T10:17:54;25.90;92.50
16980;DHT22;42288;52.182;21.156;2023-07-31T10:20:20;26.00;92.70
16980;DHT22;42288;52.182;21.156;2023-07-31T10:22:46;26.20;92.90
16980;DHT22;42288;52.182;21.156;2023-07-31T10:25:13;25.90;91.30
16980;DHT22;42288;52.182;21.156;2023-07-31T10:27:40;25.70;91.40
16980;DHT22;42288;52.182;21.156;2023-07-31T10:30:13;25.80;92.10
16980;DHT22;42288;52.182;21.156;2023-07-31T10:32:44;25.90;92.30
16980;DHT22;42288;52.182;21.156;2023-07-31T10:35:11;25.50;91.00
16980;DHT22;42288;52.182;21.156;2023-07-31T10:42:36;25.60;91.60
16980;DHT22;42288;52.182;21.156;2023-07-31T10:45:06;25.60;90.00
16980;DHT22;42288;52.182;21.156;2023-07-31T10:48:02;25.90;91.00
16980;DHT22;42288;52.182;21.156;2023-07-31T10:50:29;26.30;85.70
16980;DHT22;42288;52.182;21.156;2023-07-31T10:52:56;27.30;87.30
16980;DHT22;42288;52.182;21.156;2023-07-31T10:57:52;27.90;84.80
16980;DHT22;42288;52.182;21.156;2023-07-31T11:00:28;28.80;83.80
16980;DHT22;42288;52.182;21.156;2023-07-31T11:03:05;29.00;82.60
16980;DHT22;42288;52.182;21.156;2023-07-31T11:06:02;29.10;76.60
16980;DHT22;42288;52.182;21.156;2023-07-31T11:08:29;28.60;74.00
16980;DHT22;42288;52.182;21.156;2023-07-31T11:13:31;29.80;70.00
16980;DHT22;42288;52.182;21.156;2023-07-31T11:15:57;29.80;69.40
16980;DHT22;42288;52.182;21.156;2023-07-31T11:18:23;29.70;68.90
16980;DHT22;42288;52.182;21.156;2023-07-31T11:20:48;29.50;67.60
16980;DHT22;42288;52.182;21.156;2023-07-31T11:23:16;28.90;68.80
16980;DHT22;42288;52.182;21.156;2023-07-31T11:25:42;28.70;70.00
16980;DHT22;42288;52.182;21.156;2023-07-31T11:28:13;29.20;66.00
16980;DHT22;42288;52.182;21.156;2023-07-31T11:30:40;29.70;67.00
16980;DHT22;42288;52.182;21.156;2023-07-31T11:33:11;29.80;69.70
16980;DHT22;42288;52.182;21.156;2023-07-31T11:35:45;30.10;68.80
16980;DHT22;42288;52.182;21.156;2023-07-31T11:38:12;30.50;66.40
16980;DHT22;42288;52.182;21.156;2023-07-31T11:40:42;30.70;62.80
16980;DHT22;42288;52.182;21.156;2023-07-31T11:43:08;30.20;63.50
16980;DHT22;42288;52.182;21.156;2023-07-31T11:45:34;29.80;64.80
16980;DHT22;42288;52.182;21.156;2023-07-31T11:48:01;29.30;63.50
16980;DHT22;42288;52.182;21.156;2023-07-31T11:50:27;29.00;65.40
16980;DHT22;42288;52.182;21.156;2023-07-31T11:53:00;29.00;65.60
16980;DHT22;42288;52.182;21.156;2023-07-31T11:55:27;28.80;65.10
16980;DHT22;42288;52.182;21.156;2023-07-31T11:57:55;28.70;64.10
16980;DHT22;42288;52.182;21.156;2023-07-31T12:00:22;28.50;67.00
16980;DHT22;42288;52.182;21.156;2023-07-31T12:02:49;28.60;68.30
16980;DHT22;42288;52.182;21.156;2023-07-31T12:05:15;28.20;65.20
16980;DHT22;42288;52.182;21.156;2023-07-31T12:07:49;27.70;66.10
16980;DHT22;42288;52.182;21.156;2023-07-31T12:10:31;27.50;68.00
16980;DHT22;42288;52.182;21.156;2023-07-31T12:15:38;27.40;68.60
16980;DHT22;42288;52.182;21.156;2023-07-31T12:18:12;27.00;69.90
16980;DHT22;42288;52.182;21.156;2023-07-31T12:20:49;27.00;70.40
16980;DHT22;42288;52.182;21.156;2023-07-31T12:23:22;26.90;68.20
16980;DHT22;42288;52.182;21.156;2023-07-31T12:31:08;26.70;69.40
16980;DHT22;42288;52.182;21.156;2023-07-31T12:33:35;26.60;71.90
16980;DHT22;42288;52.182;21.156;2023-07-31T12:36:03;26.50;69.40
16980;DHT22;42288;52.182;21.156;2023-07-31T12:38:30;26.50;69.20
16980;DHT22;42288;52.182;21.156;2023-07-31T12:40:56;26.50;71.00
16980;DHT22;42288;52.182;21.156;2023-07-31T12:43:21;26.40;68.90
16980;DHT22;42288;52.182;21.156;2023-07-31T12:45:47;26.50;71.20
16980;DHT22;42288;52.182;21.156;2023-07-31T12:48:13;26.40;72.40
16980;DHT22;42288;52.182;21.156;2023-07-31T12:50:39;26.60;71.50
16980;DHT22;42288;52.182;21.156;2023-07-31T12:53:05;26.50;70.90
16980;DHT22;42288;52.182;21.156;2023-07-31T12:55:31;26.50;68.40
16980;DHT22;42288;52.182;21.156;2023-07-31T12:58:00;26.30;67.20
16980;DHT22;42288;52.182;21.156;2023-07-31T13:00:25;25.90;67.40
16980;DHT22;42288;52.182;21.156;2023-07-31T13:02:51;25.70;67.80
16980;DHT22;42288;52.182;21.156;2023-07-31T13:05:17;25.60;69.70
16980;DHT22;42288;52.182;21.156;2023-07-31T13:07:45;25.60;70.70
16980;DHT22;42288;52.182;21.156;2023-07-31T13:10:10;25.80;71.80
16980;DHT22;42288;52.182;21.156;2023-07-31T13:12:36;25.90;72.60
16980;DHT22;42288;52.182;21.156;2023-07-31T13:15:01;26.00;69.80
16980;DHT22;42288;52.182;21.156;2023-07-31T13:17:27;26.00;71.30
16980;DHT22;42288;52.182;21.156;2023-07-31T13:19:53;25.80;71.40
16980;DHT22;42288;52.182;21.156;2023-07-31T13:22:18;26.00;70.90
16980;DHT22;42288;52.182;21.156;2023-07-31T13:24:44;26.10;70.10
16980;DHT22;42288;52.182;21.156;2023-07-31T13:27:09;26.10;70.70
16980;DHT22;42288;52.182;21.156;2023-07-31T13:29:35;25.90;71.60
16980;DHT22;42288;52.182;21.156;2023-07-31T13:32:00;25.80;68.90
16980;DHT22;42288;52.182;21.156;2023-07-31T13:34:26;25.70;69.50
16980;DHT22;42288;52.182;21.156;2023-07-31T13:36:54;25.60;70.20
16980;DHT22;42288;52.182;21.156;2023-07-31T13:39:20;25.80;70.40
16980;DHT22;42288;52.182;21.156;2023-07-31T13:41:46;25.90;70.30
16980;DHT22;42288;52.182;21.156;2023-07-31T13:44:11;26.20;70.90
16980;DHT22;42288;52.182;21.156;2023-07-31T13:46:37;26.60;66.20
16980;DHT22;42288;52.182;21.156;2023-07-31T13:49:02;26.80;67.40
16980;DHT22;42288;52.182;21.156;2023-07-31T13:51:28;27.30;66.30
16980;DHT22;42288;52.182;21.156;2023-07-31T13:53:54;27.30;66.50
16980;DHT22;42288;52.182;21.156;2023-07-31T13:56:19;27.50;70.00
16980;DHT22;42288;52.182;21.156;2023-07-31T13:58:45;27.10;64.90
16980;DHT22;42288;52.182;21.156;2023-07-31T14:01:10;26.90;67.50
16980;DHT22;42288;52.182;21.156;2023-07-31T14:03:36;26.80;65.80
16980;DHT22;42288;52.182;21.156;2023-07-31T14:06:02;27.00;68.40
16980;DHT22;42288;52.182;21.156;2023-07-31T14:08:28;26.90;66.70
16980;DHT22;42288;52.182;21.156;2023-07-31T14:10:55;27.10;65.90
16980;DHT22;42288;52.182;21.156;2023-07-31T14:13:20;27.10;68.80
16980;DHT22;42288;52.182;21.156;2023-07-31T14:15:46;27.00;68.00
16980;DHT22;42288;52.182;21.156;2023-07-31T14:18:11;26.70;66.90
16980;DHT22;42288;52.182;21.156;2023-07-31T14:20:37;26.40;68.20
16980;DHT22;42288;52.182;21.156;2023-07-31T14:23:03;26.40;68.40
16980;DHT22;42288;52.182;21.156;2023-07-31T14:25:29;26.20;68.80
16980;DHT22;42288;52.182;21.156;2023-07-31T14:27:54;26.30;69.00
16980;DHT22;42288;52.182;21.156;2023-07-31T14:30:20;26.10;69.00
16980;DHT22;42288;52.182;21.156;2023-07-31T14:32:46;26.00;69.10
16980;DHT22;42288;52.182;21.156;2023-07-31T14:35:12;26.00;69.30
16980;DHT22;42288;52.182;21.156;2023-07-31T14:37:42;25.90;70.70
16980;DHT22;42288;52.182;21.156;2023-07-31T14:40:09;25.90;71.60
16980;DHT22;42288;52.182;21.156;2023-07-31T14:42:36;25.80;71.10
16980;DHT22;42288;52.182;21.156;2023-07-31T14:45:02;25.80;72.20
16980;DHT22;42288;52.182;21.156;2023-07-31T14:47:28;25.70;70.50
16980;DHT22;42288;52.182;21.156;2023-07-31T14:49:53;25.70;71.60
16980;DHT22;42288;52.182;21.156;2023-07-31T14:52:19;25.70;72.90
16980;DHT22;42288;52.182;21.156;2023-07-31T14:54:45;25.70;72.20
16980;DHT22;42288;52.182;21.156;2023-07-31T14:57:10;25.70;72.70
16980;DHT22;42288;52.182;21.156;2023-07-31T14:59:36;25.80;72.70
16980;DHT22;42288;52.182;21.156;2023-07-31T15:02:02;25.70;70.80
16980;DHT22;42288;52.182;21.156;2023-07-31T15:04:28;25.80;72.20
16980;DHT22;42288;52.182;21.156;2023-07-31T15:06:53;25.80;70.00
16980;DHT22;42288;52.182;21.156;2023-07-31T15:09:19;25.70;69.90
16980;DHT22;42288;52.182;21.156;2023-07-31T15:11:44;25.40;71.50
16980;DHT22;42288;52.182;21.156;2023-07-31T15:14:10;25.30;71.40
16980;DHT22;42288;52.182;21.156;2023-07-31T15:16:36;25.30;71.20
16980;DHT22;42288;52.182;21.156;2023-07-31T15:19:01;25.20;73.00
16980;DHT22;42288;52.182;21.156;2023-07-31T15:21:27;25.20;72.90
16980;DHT22;42288;52.182;21.156;2023-07-31T15:23:52;25.20;74.10
16980;DHT22;42288;52.182;21.156;2023-07-31T15:26:18;25.10;72.30
16980;DHT22;42288;52.182;21.156;2023-07-31T15:28:49;25.20;72.00
16980;DHT22;42288;52.182;21.156;2023-07-31T15:31:15;25.10;72.40
16980;DHT22;42288;52.182;21.156;2023-07-31T15:33:41;25.10;71.10
16980;DHT22;42288;52.182;21.156;2023-07-31T15:36:06;25.10;72.30
16980;DHT22;42288;52.182;21.156;2023-07-31T15:38:32;25.10;71.10
16980;DHT22;42288;52.182;21.156;2023-07-31T15:40:58;25.10;73.40
16980;DHT22;42288;52.182;21.156;2023-07-31T15:43:24;25.20;72.30
16980;DHT22;42288;52.182;21.156;2023-07-31T15:45:50;25.10;73.40
16980;DHT22;42288;52.182;21.156;2023-07-31T15:48:15;25.00;73.20
16980;DHT22;42288;52.182;21.156;2023-07-31T15:50:41;25.00;74.20